首页
METAR-TAF:

METAR-TAF

机场 :

百慕大, 百慕大

L.F.韋德國際機場

纬度: 32-22N, 经度: 064-41W, 海拔: 6米

当前天气观测

该预报发布于41分钟前的23:21 UTC
风速12节,风向
温度 21°C
湿度 94%
气压 1018 hPa
能見度: 8000
多云层高于700英尺
阴天层高于2200英尺
小毛毛雨

METAR: TXKF 172321Z 17012KT 8000 -DZ BKN007 OVC022 21/20 Q1018

时间: 20:02 (00:02 UTC)

预报

该预报发布于31分钟前的23:31 UTC
预报有效从18日的 00点(UTC)到 18日的 24点(UTC)
风速12节,风向
能见度10公里或以上
散云层高于700英尺
多云层高于1800英尺
附近有阵雨
几率 30%
从 18日的 00点(UTC)到 18日的 07点(UTC)
能見度: 1600
多云层高于600英尺
小雨, 毛毛雨, 轻雾
几率 40%
从 18日的 00点(UTC)到 18日的 07点(UTC)
能見度: 4800
多云层高于1200英尺
小毛毛雨
成为
从 18日的 07点(UTC)到 18日的 09点(UTC)
散云层高于2000英尺
多云层高于4000英尺
成为
从 18日的 16点(UTC)到 18日的 18点(UTC)
风速22节,风向南转西南
附近有阵雨
成为
从 18日的 20点(UTC)到 18日的 22点(UTC)
风速28节,风向西
短暂存在
从 18日的 20点(UTC)到 18日的 24点(UTC)
风速32节,风向西,有时为45节阵风
能見度: 4800
多云层高于1000英尺
阵雨

TAF: TXKF 172331Z 1800/1824 18012KT 9999 VCSH SCT007 BKN018 PROB30 1800/1807 1600 -RADZ BR BKN006 PROB40 1800/1807 4800 -DZ BKN012 BECMG 1807/1809 NSW SCT020 BKN040 BECMG 1816/1818 21022KT VCSH BECMG 1820/1822 27028KT TEMPO 1820/1824 28032G45KT 4800 SHRA BKN010

超过4000个机场的气象观测和天气预报(METAR&TAF报告)。

可查询的气象台以黄色和红色小点在地图上表示。

将鼠标移到小点上方,可查看气象台名称。

然后点击查看天气观测和预报。

如需切换地图:点击带黑十字的绿色按钮放大地图;点击带横线的绿色按钮缩小地图;或者点击绿色箭头查看邻近地区的地图。


METAR-TAF: